createdAt,value
2022-10-22T00:00:34.047Z,2.00
2022-10-22T00:01:37.731Z,3.00
2022-10-22T00:02:41.841Z,3.50
2022-10-22T00:03:45.935Z,1.00
2022-10-22T00:04:50.365Z,1.50
2022-10-22T00:05:54.323Z,2.25
2022-10-22T00:06:58.404Z,2.00
2022-10-22T00:08:02.676Z,2.50
2022-10-22T00:09:06.773Z,3.00
2022-10-22T00:10:10.770Z,4.00
2022-10-22T00:11:14.976Z,2.50
2022-10-22T00:12:19.186Z,3.25
2022-10-22T00:13:23.081Z,3.00
2022-10-22T00:14:26.977Z,3.00
2022-10-22T00:15:31.091Z,2.50
2022-10-22T00:16:35.080Z,3.00
2022-10-22T00:17:39.237Z,3.50
2022-10-22T00:18:43.163Z,2.25
2022-10-22T00:19:47.100Z,1.75
2022-10-22T00:20:51.463Z,2.00
2022-10-22T00:21:55.544Z,2.75
2022-10-22T00:22:59.605Z,3.50
2022-10-22T00:24:03.712Z,3.00
2022-10-22T00:25:07.500Z,2.50
2022-10-22T00:26:11.288Z,2.50
2022-10-22T00:27:15.339Z,2.50
2022-10-22T00:28:19.574Z,1.50
2022-10-22T00:29:23.402Z,2.00
2022-10-22T00:30:27.399Z,3.00
2022-10-22T00:31:31.762Z,2.25
2022-10-22T00:32:36.250Z,2.50
2022-10-22T00:33:40.119Z,2.00
2022-10-22T00:34:44.022Z,1.50
2022-10-22T00:35:48.026Z,1.00
2022-10-22T00:36:51.920Z,2.00
2022-10-22T00:37:55.910Z,2.25
2022-10-22T00:38:59.823Z,2.00
2022-10-22T00:40:03.924Z,3.00
2022-10-22T00:41:07.793Z,3.00
2022-10-22T00:42:11.675Z,1.50
2022-10-22T00:43:15.833Z,3.25
2022-10-22T00:44:19.618Z,3.00
2022-10-22T00:45:23.427Z,2.00
2022-10-22T00:46:27.350Z,2.00
2022-10-22T00:47:31.333Z,1.00
2022-10-22T00:48:35.199Z,2.50
2022-10-22T00:49:39.111Z,1.75
2022-10-22T00:50:42.913Z,3.00
2022-10-22T00:51:46.842Z,2.50
2022-10-22T00:52:50.731Z,1.50
2022-10-22T00:53:54.472Z,1.00
2022-10-22T00:54:58.706Z,2.00
2022-10-22T00:56:02.918Z,2.00
2022-10-22T00:57:06.924Z,2.50
2022-10-22T00:58:10.814Z,3.00
2022-10-22T00:59:14.922Z,2.00
2022-10-22T01:00:19.025Z,2.00
2022-10-22T01:01:23.367Z,2.50
2022-10-22T01:02:27.669Z,2.25
2022-10-22T01:03:31.641Z,2.50
2022-10-22T01:04:35.433Z,1.50
2022-10-22T01:05:39.439Z,1.75
2022-10-22T01:06:43.450Z,1.50
2022-10-22T01:07:47.346Z,2.50
2022-10-22T01:08:51.501Z,3.00
2022-10-22T01:09:55.541Z,3.50
2022-10-22T01:10:59.514Z,3.00
2022-10-22T01:12:03.272Z,2.00
2022-10-22T01:13:07.812Z,2.00
2022-10-22T01:14:11.649Z,1.75
2022-10-22T01:15:16.775Z,1.50
2022-10-22T01:16:20.990Z,1.50
2022-10-22T01:17:25.207Z,2.00
2022-10-22T01:18:29.188Z,1.50
2022-10-22T01:19:33.297Z,2.50
2022-10-22T01:20:37.203Z,3.00
2022-10-22T01:21:41.091Z,1.75
2022-10-22T01:22:45.203Z,2.00
2022-10-22T01:23:49.106Z,2.50
2022-10-22T01:24:53.306Z,1.50
2022-10-22T01:25:57.337Z,2.50
2022-10-22T01:27:01.651Z,2.25
2022-10-22T01:28:05.313Z,2.00
2022-10-22T01:29:09.280Z,3.00
2022-10-22T01:30:13.197Z,3.25
2022-10-22T01:31:16.984Z,3.00
2022-10-22T01:32:21.005Z,4.00
2022-10-22T01:33:25.210Z,3.50
2022-10-22T01:34:29.133Z,3.50
2022-10-22T01:36:37.631Z,3.75
2022-10-22T01:37:42.246Z,3.50
2022-10-22T01:38:46.438Z,2.00
2022-10-22T01:39:50.441Z,3.00
2022-10-22T01:40:54.242Z,3.00
2022-10-22T01:41:58.142Z,2.50
2022-10-22T01:43:03.177Z,3.50
2022-10-22T01:44:07.062Z,4.00
2022-10-22T01:45:11.272Z,3.00
2022-10-22T01:46:15.096Z,2.00
2022-10-22T01:47:19.059Z,2.00
2022-10-22T01:48:22.935Z,2.25
2022-10-22T01:49:26.957Z,2.75
2022-10-22T01:50:30.975Z,2.25
2022-10-22T01:51:34.735Z,3.00
2022-10-22T01:52:39.074Z,3.25
2022-10-22T01:54:47.378Z,3.50
2022-10-22T01:55:51.699Z,3.00
2022-10-22T01:56:55.488Z,2.00
2022-10-22T01:57:59.280Z,2.50
2022-10-22T01:59:03.257Z,3.00
2022-10-22T02:00:07.297Z,2.50
2022-10-22T02:01:11.401Z,3.50
2022-10-22T02:02:16.585Z,3.00
2022-10-22T02:03:22.906Z,3.50
2022-10-22T02:04:25.542Z,3.50
2022-10-22T02:05:29.248Z,2.50
2022-10-22T02:06:33.128Z,3.00
2022-10-22T02:07:37.131Z,1.50
2022-10-22T02:08:41.687Z,1.25
2022-10-22T02:09:45.926Z,3.00
2022-10-22T02:10:50.574Z,3.25
2022-10-22T02:11:54.883Z,2.50
2022-10-22T02:12:58.784Z,2.50
2022-10-22T02:14:03.072Z,2.00
2022-10-22T02:15:06.881Z,2.50
2022-10-22T02:16:10.881Z,3.00
2022-10-22T02:17:15.091Z,3.25
2022-10-22T02:18:19.129Z,3.00
2022-10-22T02:19:23.315Z,3.00
2022-10-22T02:20:27.199Z,3.00
2022-10-22T02:21:30.968Z,3.50
2022-10-22T02:22:34.759Z,2.50
2022-10-22T02:23:38.588Z,2.50
2022-10-22T02:24:42.380Z,3.50
2022-10-22T02:25:46.278Z,3.50
2022-10-22T02:26:50.364Z,4.00
2022-10-22T02:27:54.211Z,3.50
2022-10-22T02:28:57.850Z,3.50
2022-10-22T02:30:01.923Z,3.75
2022-10-22T02:31:05.790Z,2.75
2022-10-22T02:32:09.769Z,3.00
2022-10-22T02:33:13.881Z,4.00
2022-10-22T02:34:17.744Z,3.50
2022-10-22T02:35:21.677Z,3.00
2022-10-22T02:36:27.209Z,2.50
2022-10-22T02:37:31.117Z,4.00
2022-10-22T02:38:34.911Z,3.00
2022-10-22T02:39:38.908Z,4.25
2022-10-22T02:40:43.007Z,4.00
2022-10-22T02:41:46.812Z,2.50
2022-10-22T02:42:51.405Z,3.25
2022-10-22T02:43:55.439Z,3.50
2022-10-22T02:44:59.530Z,4.50
2022-10-22T02:46:03.761Z,3.00
2022-10-22T02:47:07.631Z,2.25
2022-10-22T02:48:11.599Z,1.50
2022-10-22T02:49:15.429Z,2.50
2022-10-22T02:50:19.591Z,3.00
2022-10-22T02:51:23.840Z,2.00
2022-10-22T02:52:27.847Z,2.50
2022-10-22T02:53:31.853Z,2.50
2022-10-22T02:54:36.048Z,2.50
2022-10-22T02:55:40.146Z,2.00
2022-10-22T02:56:44.297Z,3.00
2022-10-22T02:57:48.096Z,3.00
2022-10-22T02:58:52.435Z,3.00
2022-10-22T02:59:56.670Z,3.50
2022-10-22T03:01:00.609Z,3.00
2022-10-22T03:02:04.576Z,2.00
2022-10-22T03:03:08.570Z,2.75
2022-10-22T03:04:12.355Z,3.50
2022-10-22T03:05:16.376Z,4.00
2022-10-22T03:06:20.307Z,4.25
2022-10-22T03:07:24.473Z,2.00
2022-10-22T03:08:28.569Z,3.00
2022-10-22T03:09:32.361Z,2.75
2022-10-22T03:10:36.473Z,3.50
2022-10-22T03:11:40.586Z,2.75
2022-10-22T03:12:44.523Z,2.50
2022-10-22T03:13:48.374Z,3.50
2022-10-22T03:14:52.373Z,4.50
2022-10-22T03:15:56.486Z,3.50
2022-10-22T03:17:00.586Z,4.00
2022-10-22T03:18:04.756Z,5.75
2022-10-22T03:19:08.804Z,5.25
2022-10-22T03:20:13.095Z,3.75
2022-10-22T03:21:17.508Z,3.00
2022-10-22T03:22:22.104Z,3.00
2022-10-22T03:23:26.401Z,3.50
2022-10-22T03:24:30.865Z,3.50
2022-10-22T03:25:35.104Z,3.50
2022-10-22T03:26:39.476Z,2.00
2022-10-22T03:27:43.853Z,2.75
2022-10-22T03:28:48.317Z,3.00
2022-10-22T03:29:52.781Z,3.33
2022-10-22T03:30:57.084Z,2.50
2022-10-22T03:32:01.494Z,3.50
2022-10-22T03:33:05.791Z,4.00
2022-10-22T03:34:10.212Z,4.00
2022-10-22T03:35:14.525Z,4.00
2022-10-22T03:36:19.059Z,3.75
2022-10-22T03:37:23.103Z,3.00
2022-10-22T03:38:27.578Z,2.75
2022-10-22T03:39:32.058Z,4.25
2022-10-22T03:40:36.681Z,3.75
2022-10-22T03:41:41.292Z,2.75
2022-10-22T03:42:45.472Z,2.00
2022-10-22T03:43:50.115Z,3.50
2022-10-22T03:44:54.424Z,3.50
2022-10-22T03:45:58.751Z,2.50
2022-10-22T03:47:03.011Z,3.00
2022-10-22T03:48:07.223Z,4.00
2022-10-22T03:49:11.547Z,2.50
2022-10-22T03:50:15.858Z,4.00
2022-10-22T03:51:20.373Z,4.00
2022-10-22T03:52:24.893Z,4.00
2022-10-22T03:53:29.096Z,3.50
2022-10-22T03:54:33.428Z,3.75
2022-10-22T03:55:37.811Z,3.50
2022-10-22T03:56:41.520Z,3.00
2022-10-22T03:57:46.022Z,5.00
2022-10-22T03:58:50.321Z,3.75
2022-10-22T03:59:54.576Z,3.00
2022-10-22T04:00:58.752Z,2.75
2022-10-22T04:02:03.063Z,3.50
2022-10-22T04:03:07.552Z,3.50
2022-10-22T04:04:11.784Z,3.50
2022-10-22T04:05:16.071Z,3.00
2022-10-22T04:06:20.495Z,3.50
2022-10-22T04:07:25.122Z,4.25
2022-10-22T04:08:29.488Z,3.50
2022-10-22T04:09:33.925Z,2.50
2022-10-22T04:10:38.227Z,3.25
2022-10-22T04:11:42.407Z,4.25
2022-10-22T04:12:46.855Z,4.00
2022-10-22T04:13:51.152Z,4.25
2022-10-22T04:14:55.031Z,4.00
2022-10-22T04:15:58.972Z,3.25
2022-10-22T04:17:02.674Z,5.00
2022-10-22T04:18:06.672Z,5.00
2022-10-22T04:19:10.673Z,3.00
2022-10-22T04:20:14.666Z,3.00
2022-10-22T04:21:18.878Z,3.50
2022-10-22T04:22:23.263Z,3.00
2022-10-22T04:23:27.802Z,2.25
2022-10-22T04:24:32.289Z,3.00
2022-10-22T04:25:36.477Z,3.50
2022-10-22T04:26:40.806Z,3.50
2022-10-22T04:27:45.325Z,3.50
2022-10-22T04:28:49.499Z,2.00
2022-10-22T04:29:53.439Z,3.00
2022-10-22T04:30:57.454Z,3.25
2022-10-22T04:32:01.850Z,3.50
2022-10-22T04:33:05.766Z,4.00
2022-10-22T04:34:11.127Z,3.50
2022-10-22T04:35:15.174Z,3.25
2022-10-22T04:36:19.916Z,3.50
2022-10-22T04:37:24.417Z,3.50
2022-10-22T04:38:28.320Z,2.00
2022-10-22T04:39:32.523Z,2.50
2022-10-22T04:40:36.437Z,3.00
2022-10-22T04:41:40.333Z,2.25
2022-10-22T04:42:45.138Z,3.00
2022-10-22T04:43:49.429Z,4.25
2022-10-22T04:44:54.090Z,4.50
2022-10-22T04:45:58.446Z,1.50
2022-10-22T04:47:02.965Z,1.50
2022-10-22T04:48:07.894Z,2.50
2022-10-22T04:49:12.082Z,2.50
2022-10-22T04:50:16.712Z,3.50
2022-10-22T04:51:21.433Z,5.25
2022-10-22T04:52:26.358Z,3.00
2022-10-22T04:53:31.071Z,3.75
2022-10-22T04:54:35.585Z,3.00
2022-10-22T04:55:39.891Z,2.50
2022-10-22T04:56:44.026Z,2.50
2022-10-22T04:57:48.825Z,4.00
2022-10-22T04:58:53.125Z,2.00
2022-10-22T04:59:57.428Z,3.00
2022-10-22T05:01:01.564Z,3.25
2022-10-22T05:02:05.948Z,4.50
2022-10-22T05:03:09.806Z,3.00
2022-10-22T05:04:13.673Z,2.75
2022-10-22T05:05:17.895Z,3.25
2022-10-22T05:06:22.154Z,2.75
2022-10-22T05:07:26.376Z,2.00
2022-10-22T05:08:30.687Z,2.50
2022-10-22T05:09:35.080Z,3.50
2022-10-22T05:10:38.900Z,3.75
2022-10-22T05:11:43.389Z,2.00
2022-10-22T05:12:47.795Z,3.75
2022-10-22T05:13:53.132Z,2.50
2022-10-22T05:14:57.179Z,2.00
2022-10-22T05:16:01.365Z,2.00
2022-10-22T05:17:05.161Z,3.00
2022-10-22T05:18:09.103Z,3.25
2022-10-22T05:19:13.259Z,2.50
2022-10-22T05:20:16.956Z,3.25
2022-10-22T05:21:21.375Z,3.00
2022-10-22T05:22:25.860Z,2.67
2022-10-22T05:23:29.883Z,2.00
2022-10-22T05:24:34.402Z,2.75
2022-10-22T05:25:38.464Z,2.75
2022-10-22T05:26:42.606Z,4.00
2022-10-22T05:27:47.501Z,4.25
2022-10-22T05:28:51.836Z,3.25
2022-10-22T05:29:56.042Z,2.00
2022-10-22T05:31:00.188Z,3.00
2022-10-22T05:32:04.832Z,3.50
2022-10-22T05:33:09.113Z,4.00
2022-10-22T05:34:13.346Z,2.75
2022-10-22T05:35:17.872Z,1.50
2022-10-22T05:36:22.175Z,3.00
2022-10-22T05:37:26.889Z,3.00
2022-10-22T05:38:31.209Z,2.00
2022-10-22T05:39:35.819Z,2.00
2022-10-22T05:40:40.212Z,3.50
2022-10-22T05:41:44.537Z,2.75
2022-10-22T05:42:49.290Z,2.50
2022-10-22T05:43:54.066Z,3.00
2022-10-22T05:44:58.383Z,3.25
2022-10-22T05:46:02.792Z,3.25
2022-10-22T05:47:06.725Z,3.50
2022-10-22T05:48:10.606Z,2.50
2022-10-22T05:49:14.346Z,3.00
2022-10-22T05:50:18.299Z,2.50
2022-10-22T05:51:22.512Z,2.75
2022-10-22T05:52:27.209Z,3.50
2022-10-22T05:53:31.625Z,3.25
2022-10-22T05:54:36.130Z,1.75
2022-10-22T05:55:40.891Z,2.75
2022-10-22T05:56:45.019Z,3.00
2022-10-22T05:57:49.229Z,2.25
2022-10-22T05:58:53.472Z,4.50
2022-10-22T05:59:57.766Z,4.00
2022-10-22T06:01:02.093Z,2.25
2022-10-22T06:02:06.308Z,3.75
2022-10-22T06:03:10.700Z,4.00
2022-10-22T06:04:15.310Z,3.00
2022-10-22T06:05:19.731Z,3.50
2022-10-22T06:06:24.654Z,2.50
2022-10-22T06:07:29.025Z,2.75
2022-10-22T06:08:33.700Z,4.50
2022-10-22T06:10:42.491Z,4.00
2022-10-22T06:11:46.916Z,4.50
2022-10-22T06:12:51.409Z,5.50
2022-10-22T06:13:55.824Z,5.00
2022-10-22T06:15:00.346Z,3.50
2022-10-22T06:16:04.749Z,3.00
2022-10-22T06:17:10.391Z,4.25
2022-10-22T06:18:15.107Z,3.75
2022-10-22T06:19:19.637Z,4.00
2022-10-22T06:20:24.231Z,5.75
2022-10-22T06:21:28.524Z,4.50
2022-10-22T06:22:32.673Z,6.00
2022-10-22T06:23:37.245Z,6.00
2022-10-22T06:24:45.061Z,4.50
2022-10-22T06:25:47.927Z,5.25
2022-10-22T06:26:52.762Z,4.75
2022-10-22T06:27:57.363Z,4.00
2022-10-22T06:29:01.431Z,4.00
2022-10-22T06:30:05.675Z,4.50
2022-10-22T06:31:09.949Z,3.50
2022-10-22T06:32:14.403Z,4.00
2022-10-22T06:33:19.008Z,3.00
2022-10-22T06:34:23.726Z,3.50
2022-10-22T06:35:28.450Z,5.25
2022-10-22T06:36:32.984Z,4.00
2022-10-22T06:37:38.518Z,4.00
2022-10-22T06:38:43.290Z,5.00
2022-10-22T06:39:47.923Z,5.00
2022-10-22T06:40:52.235Z,2.50
2022-10-22T06:41:56.752Z,2.50
2022-10-22T06:43:01.261Z,4.25
2022-10-22T06:44:05.814Z,5.50
2022-10-22T06:45:10.394Z,3.25
2022-10-22T06:46:17.517Z,4.00
2022-10-22T06:47:20.429Z,4.25
2022-10-22T06:48:24.949Z,3.50
2022-10-22T06:49:29.873Z,4.25
2022-10-22T06:50:34.290Z,4.75
2022-10-22T06:51:38.474Z,4.25
2022-10-22T06:52:42.795Z,4.50
2022-10-22T06:53:47.424Z,5.75
2022-10-22T06:54:51.731Z,6.00
2022-10-22T06:55:56.211Z,5.00
2022-10-22T06:57:00.187Z,3.50
2022-10-22T06:58:04.441Z,3.50
2022-10-22T06:59:08.957Z,4.50
2022-10-22T07:00:13.298Z,4.00
2022-10-22T07:01:17.603Z,4.00
2022-10-22T07:02:22.192Z,4.50
2022-10-22T07:03:26.719Z,5.50
2022-10-22T07:04:31.255Z,6.00
2022-10-22T07:05:35.616Z,6.00
2022-10-22T07:06:39.832Z,7.00
2022-10-22T07:07:44.565Z,5.00
2022-10-22T07:08:49.052Z,4.00
2022-10-22T07:09:53.583Z,4.50
2022-10-22T07:10:57.986Z,4.50
2022-10-22T07:12:02.326Z,3.25
2022-10-22T07:13:06.701Z,4.00
2022-10-22T07:14:11.187Z,5.00
2022-10-22T07:15:15.534Z,4.50
2022-10-22T07:16:19.934Z,5.00
2022-10-22T07:17:24.462Z,5.00
2022-10-22T07:18:28.862Z,3.50
2022-10-22T07:19:33.173Z,3.50
2022-10-22T07:20:37.787Z,5.00
2022-10-22T07:21:42.059Z,6.50
2022-10-22T07:22:46.396Z,5.75
2022-10-22T07:23:50.913Z,4.75
2022-10-22T07:24:55.110Z,4.00
2022-10-22T07:25:59.432Z,6.75
2022-10-22T07:27:03.796Z,5.25
2022-10-22T07:28:09.162Z,5.00
2022-10-22T07:29:13.582Z,3.75
2022-10-22T07:30:17.989Z,4.75
2022-10-22T07:31:22.609Z,3.25
2022-10-22T07:32:26.998Z,5.50
2022-10-22T07:33:31.487Z,5.50
2022-10-22T07:34:36.878Z,3.75
2022-10-22T07:35:41.269Z,4.50
2022-10-22T07:36:45.680Z,5.50
2022-10-22T07:37:50.101Z,4.00
2022-10-22T07:38:54.400Z,4.50
2022-10-22T07:40:02.884Z,4.00
2022-10-22T07:41:04.253Z,4.50
2022-10-22T07:42:08.766Z,6.00
2022-10-22T07:43:13.070Z,4.50
2022-10-22T07:44:17.362Z,5.00
2022-10-22T07:45:21.699Z,6.00
2022-10-22T07:46:26.005Z,5.00
2022-10-22T07:47:30.491Z,4.00
2022-10-22T07:48:34.923Z,4.25
2022-10-22T07:49:39.331Z,3.50
2022-10-22T07:51:48.670Z,5.25
2022-10-22T07:52:54.858Z,6.50
2022-10-22T07:53:59.024Z,6.00
2022-10-22T07:55:03.114Z,4.25
2022-10-22T07:56:07.536Z,4.00
2022-10-22T07:57:11.854Z,4.50
2022-10-22T07:59:19.952Z,5.00
2022-10-22T08:00:25.467Z,5.75
2022-10-22T08:01:30.216Z,6.25
2022-10-22T08:02:34.416Z,5.50
2022-10-22T08:03:38.675Z,5.25
2022-10-22T08:04:43.225Z,5.50
2022-10-22T08:05:47.639Z,5.50
2022-10-22T08:06:52.459Z,4.50
2022-10-22T08:07:57.384Z,6.00
2022-10-22T08:09:01.645Z,5.75
2022-10-22T08:11:25.428Z,5.00
2022-10-22T08:12:29.768Z,3.75
2022-10-22T08:13:34.069Z,3.25
2022-10-22T08:15:42.313Z,4.25
2022-10-22T08:16:46.802Z,4.00
2022-10-22T08:17:51.410Z,3.00
2022-10-22T08:18:55.906Z,4.00
2022-10-22T08:20:00.346Z,4.75
2022-10-22T08:21:04.456Z,4.50
2022-10-22T08:22:09.052Z,3.25
2022-10-22T08:23:13.674Z,5.00
2022-10-22T08:24:18.088Z,4.00
2022-10-22T08:25:22.698Z,5.00
2022-10-22T08:26:27.324Z,5.00
2022-10-22T08:27:32.035Z,4.25
2022-10-22T08:28:36.445Z,3.33
2022-10-22T08:29:40.661Z,4.00
2022-10-22T08:30:45.470Z,5.50
2022-10-22T08:31:49.770Z,5.00
2022-10-22T08:32:54.220Z,3.25
2022-10-22T08:33:58.591Z,4.25
2022-10-22T08:35:02.608Z,5.00
2022-10-22T08:36:07.003Z,5.50
2022-10-22T08:37:11.312Z,4.75
2022-10-22T08:38:15.619Z,4.00
2022-10-22T08:39:20.038Z,5.00
2022-10-22T08:40:24.467Z,5.50
2022-10-22T08:41:28.539Z,4.50
2022-10-22T08:42:32.859Z,3.50
2022-10-22T08:43:37.170Z,4.00
2022-10-22T08:44:41.679Z,4.50
2022-10-22T08:45:46.085Z,4.75
2022-10-22T08:46:50.192Z,5.50
2022-10-22T08:47:54.703Z,5.50
2022-10-22T08:48:59.146Z,5.50
2022-10-22T08:50:03.620Z,5.00
2022-10-22T08:51:07.839Z,6.50
2022-10-22T08:52:12.142Z,5.00
2022-10-22T08:53:16.225Z,4.75
2022-10-22T08:54:20.559Z,5.00
2022-10-22T08:55:24.960Z,4.50
2022-10-22T08:56:29.475Z,6.00
2022-10-22T08:57:33.680Z,5.75
2022-10-22T08:58:37.978Z,4.00
2022-10-22T08:59:42.204Z,5.50
2022-10-22T09:00:46.610Z,5.00
2022-10-22T09:01:51.024Z,5.00
2022-10-22T09:02:55.427Z,5.00
2022-10-22T09:03:59.841Z,4.25
2022-10-22T09:05:05.887Z,4.00
2022-10-22T09:06:09.906Z,4.50
2022-10-22T09:07:14.199Z,4.75
2022-10-22T09:08:18.816Z,5.50
2022-10-22T09:09:23.220Z,5.00
2022-10-22T09:10:27.940Z,2.50
2022-10-22T09:11:32.461Z,4.25
2022-10-22T09:12:37.072Z,4.00
2022-10-22T09:13:41.179Z,5.00
2022-10-22T09:14:45.487Z,4.00
2022-10-22T09:15:50.097Z,4.00
2022-10-22T09:16:54.340Z,4.50
2022-10-22T09:17:58.796Z,4.00
2022-10-22T09:19:03.235Z,5.75
2022-10-22T09:20:07.635Z,5.25
2022-10-22T09:21:12.023Z,3.50
2022-10-22T09:22:16.355Z,4.75
2022-10-22T09:23:20.768Z,4.00
2022-10-22T09:24:25.957Z,4.00
2022-10-22T09:25:30.501Z,6.00
2022-10-22T09:26:35.042Z,5.00
2022-10-22T09:27:39.681Z,4.25
2022-10-22T09:28:44.261Z,3.00
2022-10-22T09:29:48.563Z,3.50
2022-10-22T09:30:52.897Z,5.00
2022-10-22T09:31:57.284Z,4.00
2022-10-22T09:33:01.381Z,3.00
2022-10-22T09:34:06.108Z,3.50
2022-10-22T09:35:10.313Z,3.50
2022-10-22T09:36:14.403Z,4.25
2022-10-22T09:37:18.642Z,5.00
2022-10-22T09:38:22.925Z,3.75
2022-10-22T09:39:27.444Z,5.50
2022-10-22T09:40:31.527Z,4.75
2022-10-22T09:41:35.453Z,5.25
2022-10-22T09:42:40.366Z,5.00
2022-10-22T09:43:44.676Z,3.25
2022-10-22T09:44:48.876Z,4.75
2022-10-22T09:45:53.284Z,4.25
2022-10-22T09:46:57.597Z,4.25
2022-10-22T09:48:02.461Z,4.00
2022-10-22T09:49:06.629Z,4.50
2022-10-22T09:50:10.933Z,4.50
2022-10-22T09:51:15.548Z,3.00
2022-10-22T09:52:19.955Z,3.00
2022-10-22T09:53:24.373Z,3.00
2022-10-22T09:54:28.779Z,4.00
2022-10-22T09:55:33.395Z,4.00
2022-10-22T09:56:38.006Z,3.50
2022-10-22T09:57:44.495Z,4.50
2022-10-22T09:58:48.071Z,4.00
2022-10-22T09:59:52.399Z,4.50
2022-10-22T10:00:56.882Z,4.00
2022-10-22T10:02:13.435Z,2.75
2022-10-22T10:03:06.860Z,4.00
2022-10-22T10:04:11.125Z,6.25
2022-10-22T10:05:15.538Z,4.75
2022-10-22T10:06:19.723Z,3.50
2022-10-22T10:07:23.852Z,3.25
2022-10-22T10:08:28.163Z,3.50
2022-10-22T10:09:32.372Z,5.00
2022-10-22T10:10:36.685Z,4.25
2022-10-22T10:11:40.887Z,4.00
2022-10-22T10:13:48.849Z,3.75
2022-10-22T10:14:52.991Z,4.50
2022-10-22T10:15:57.605Z,3.25
2022-10-22T10:17:01.946Z,3.00
2022-10-22T10:18:06.330Z,4.00
2022-10-22T10:19:10.424Z,3.50
2022-10-22T10:20:14.575Z,2.50
2022-10-22T10:21:18.845Z,4.00
2022-10-22T10:22:23.150Z,4.50
2022-10-22T10:23:27.625Z,3.25
2022-10-22T10:24:31.977Z,4.50
2022-10-22T10:25:36.509Z,3.50
2022-10-22T10:26:40.873Z,3.75
2022-10-22T10:27:45.508Z,3.50
2022-10-22T10:28:49.961Z,3.50
2022-10-22T10:29:54.231Z,4.50
2022-10-22T10:30:58.974Z,4.00
2022-10-22T10:32:03.248Z,3.50
2022-10-22T10:33:07.460Z,4.00
2022-10-22T10:34:11.974Z,4.25
2022-10-22T10:35:16.487Z,3.50
2022-10-22T10:36:20.792Z,3.00
2022-10-22T10:37:25.406Z,3.75
2022-10-22T10:38:29.859Z,3.00
2022-10-22T10:39:33.887Z,2.50
2022-10-22T10:40:37.851Z,3.00
2022-10-22T10:41:42.325Z,3.50
2022-10-22T10:42:46.566Z,4.50
2022-10-22T10:43:51.057Z,3.75
2022-10-22T10:44:55.459Z,4.00
2022-10-22T10:45:59.542Z,3.25
2022-10-22T10:47:03.735Z,3.00
2022-10-22T10:48:08.275Z,3.75
2022-10-22T10:49:12.512Z,3.75
2022-10-22T10:50:16.699Z,4.50
2022-10-22T10:51:21.007Z,4.00
2022-10-22T10:52:25.825Z,4.00
2022-10-22T10:53:30.330Z,4.75
2022-10-22T10:54:34.686Z,4.00
2022-10-22T10:55:38.659Z,2.25
2022-10-22T10:56:43.194Z,3.00
2022-10-22T10:57:47.369Z,3.00
2022-10-22T10:58:51.905Z,3.25
2022-10-22T10:59:56.440Z,3.75
2022-10-22T11:01:00.688Z,3.00
2022-10-22T11:02:05.112Z,3.75
2022-10-22T11:03:09.331Z,4.00
2022-10-22T11:04:13.421Z,4.50
2022-10-22T11:05:18.104Z,4.75
2022-10-22T11:06:24.630Z,2.50
2022-10-22T11:07:34.746Z,3.00
2022-10-22T11:08:32.996Z,3.75
2022-10-22T11:09:37.051Z,3.75
2022-10-22T11:10:41.931Z,3.75
2022-10-22T11:11:46.108Z,3.00
2022-10-22T11:12:50.243Z,3.50
2022-10-22T11:13:54.655Z,3.00
2022-10-22T11:14:58.965Z,3.00
2022-10-22T11:16:03.157Z,4.00
2022-10-22T11:17:07.278Z,2.50
2022-10-22T11:18:11.506Z,3.75
2022-10-22T11:19:22.900Z,3.75
2022-10-22T11:20:21.117Z,3.50
2022-10-22T11:21:25.630Z,3.75
2022-10-22T11:22:29.860Z,4.00
2022-10-22T11:23:34.277Z,3.50
2022-10-22T11:24:38.765Z,4.25
2022-10-22T11:25:43.070Z,3.75
2022-10-22T11:26:47.202Z,4.25
2022-10-22T11:27:51.146Z,4.00
2022-10-22T11:28:55.311Z,4.25
2022-10-22T11:29:59.467Z,4.50
2022-10-22T11:31:03.586Z,4.00
2022-10-22T11:32:07.997Z,3.00
2022-10-22T11:33:12.302Z,2.50
2022-10-22T11:34:32.611Z,4.00
2022-10-22T11:35:25.710Z,4.00
2022-10-22T11:36:27.530Z,3.00
2022-10-22T11:37:31.896Z,3.75
2022-10-22T11:38:36.324Z,3.00
2022-10-22T11:39:40.718Z,3.00
2022-10-22T11:40:45.155Z,3.25
2022-10-22T11:41:49.273Z,3.50
2022-10-22T11:42:53.537Z,2.50
2022-10-22T11:43:58.054Z,3.00
2022-10-22T11:45:02.460Z,4.00
2022-10-22T11:46:06.873Z,4.50
2022-10-22T11:47:11.176Z,4.75
2022-10-22T11:48:15.488Z,4.25
2022-10-22T11:49:19.893Z,4.50
2022-10-22T11:50:24.199Z,5.00
2022-10-22T11:51:28.615Z,5.75
2022-10-22T11:52:32.908Z,5.00
2022-10-22T11:53:37.038Z,4.00
2022-10-22T11:54:41.240Z,7.00
2022-10-22T11:55:45.338Z,6.50
2022-10-22T11:56:49.855Z,4.00
2022-10-22T11:57:54.258Z,4.50
2022-10-22T11:58:58.261Z,4.50
2022-10-22T12:00:02.774Z,4.00
2022-10-22T12:01:06.986Z,6.00
2022-10-22T12:02:11.188Z,4.75
2022-10-22T12:03:15.490Z,4.50
2022-10-22T12:04:19.531Z,5.00
2022-10-22T12:05:23.701Z,3.00
2022-10-22T12:06:27.922Z,3.75
2022-10-22T12:07:32.122Z,5.00
2022-10-22T12:08:36.550Z,3.75
2022-10-22T12:09:40.782Z,5.00
2022-10-22T12:10:45.444Z,4.00
2022-10-22T12:11:49.963Z,3.75
2022-10-22T12:12:54.468Z,5.00
2022-10-22T12:13:58.686Z,4.50
2022-10-22T12:15:02.949Z,4.50
2022-10-22T12:16:09.520Z,6.00
2022-10-22T12:17:12.828Z,5.00
2022-10-22T12:18:17.044Z,3.75
2022-10-22T12:19:20.935Z,5.50
2022-10-22T12:20:25.247Z,5.25
2022-10-22T12:21:29.786Z,6.25
2022-10-22T12:22:34.371Z,6.00
2022-10-22T12:23:38.578Z,6.50
2022-10-22T12:24:42.487Z,7.50
2022-10-22T12:25:46.983Z,5.25
2022-10-22T12:26:51.315Z,4.00
2022-10-22T12:27:55.650Z,4.50
2022-10-22T12:28:59.711Z,7.50
2022-10-22T12:30:04.124Z,7.00
2022-10-22T12:31:08.220Z,5.00
2022-10-22T12:32:12.834Z,5.25
2022-10-22T12:33:16.837Z,5.00
2022-10-22T12:34:20.778Z,4.00
2022-10-22T12:35:25.047Z,5.00
2022-10-22T12:36:29.462Z,6.50
2022-10-22T12:37:33.663Z,6.50
2022-10-22T12:38:38.177Z,5.00
2022-10-22T12:39:42.694Z,5.00
2022-10-22T12:40:48.678Z,5.25
2022-10-22T12:41:52.430Z,6.50
2022-10-22T12:42:56.686Z,5.75
2022-10-22T12:44:00.969Z,5.25
2022-10-22T12:45:05.015Z,6.50
2022-10-22T12:46:09.563Z,6.00
2022-10-22T12:47:13.979Z,5.25
2022-10-22T12:48:17.974Z,6.50
2022-10-22T12:49:22.282Z,6.50
2022-10-22T12:50:26.487Z,6.00
2022-10-22T12:52:34.794Z,6.50
2022-10-22T12:53:39.008Z,6.50
2022-10-22T12:54:43.624Z,6.75
2022-10-22T12:55:47.827Z,7.50
2022-10-22T12:56:52.229Z,6.50
2022-10-22T12:57:56.645Z,7.50
2022-10-22T12:59:00.951Z,6.75
2022-10-22T13:00:05.270Z,6.50
2022-10-22T13:01:09.510Z,7.75
2022-10-22T13:02:13.691Z,6.50
2022-10-22T13:03:18.186Z,6.75
2022-10-22T13:04:22.594Z,7.50
2022-10-22T13:05:26.604Z,6.50
2022-10-22T13:06:30.723Z,7.00
2022-10-22T13:07:34.922Z,6.75
2022-10-22T13:08:39.134Z,6.00
2022-10-22T13:09:43.421Z,5.50
2022-10-22T13:10:47.747Z,7.50
2022-10-22T13:11:51.931Z,7.00
2022-10-22T13:12:55.949Z,7.00
2022-10-22T13:13:59.948Z,7.00
2022-10-22T13:15:04.039Z,6.75
2022-10-22T13:16:08.149Z,7.25
2022-10-22T13:17:12.355Z,6.50
2022-10-22T13:18:16.457Z,6.50
2022-10-22T13:19:20.461Z,6.25
2022-10-22T13:20:24.889Z,4.00
2022-10-22T13:21:29.281Z,6.75
2022-10-22T13:22:33.581Z,7.50
2022-10-22T13:23:38.024Z,7.50
2022-10-22T13:24:42.506Z,7.75
2022-10-22T13:25:47.023Z,6.00
2022-10-22T13:26:51.574Z,7.00
2022-10-22T13:27:55.836Z,5.75
2022-10-22T13:29:00.257Z,6.25
2022-10-22T13:30:04.561Z,6.50
2022-10-22T13:31:08.450Z,6.25
2022-10-22T13:32:12.501Z,7.25
2022-10-22T13:34:20.164Z,8.75
2022-10-22T13:35:24.572Z,7.25
2022-10-22T13:36:29.084Z,6.00
2022-10-22T13:37:33.696Z,5.50
2022-10-22T13:38:37.712Z,6.75
2022-10-22T13:39:41.893Z,6.50
2022-10-22T13:40:46.311Z,5.50
2022-10-22T13:41:50.773Z,6.00
2022-10-22T13:42:55.236Z,5.50
2022-10-22T13:44:02.207Z,5.00
2022-10-22T13:45:06.105Z,5.50
2022-10-22T13:46:10.316Z,5.00
2022-10-22T13:47:14.520Z,5.75
2022-10-22T13:48:18.726Z,6.25
2022-10-22T13:49:22.923Z,6.00
2022-10-22T13:50:27.336Z,6.00
2022-10-22T13:51:31.852Z,6.00
2022-10-22T13:52:35.959Z,6.50
2022-10-22T13:53:40.473Z,6.00
2022-10-22T13:54:44.539Z,6.00
2022-10-22T13:55:48.674Z,4.00
2022-10-22T13:56:52.618Z,4.75
2022-10-22T13:57:56.883Z,5.50
2022-10-22T13:59:01.299Z,5.00
2022-10-22T14:00:05.714Z,5.50
2022-10-22T14:01:10.099Z,5.00
2022-10-22T14:02:14.290Z,5.00
2022-10-22T14:03:18.416Z,4.50
2022-10-22T14:04:22.549Z,4.50
2022-10-22T14:05:26.633Z,4.50
2022-10-22T14:06:31.362Z,4.25
2022-10-22T14:07:35.866Z,5.00
2022-10-22T14:08:40.541Z,5.00
2022-10-22T14:09:44.688Z,5.00
2022-10-22T14:10:48.924Z,5.00
2022-10-22T14:11:53.308Z,4.50
2022-10-22T14:12:57.919Z,4.75
2022-10-22T14:14:02.029Z,5.00
2022-10-22T14:15:06.120Z,4.25
2022-10-22T14:16:10.330Z,4.00
2022-10-22T14:17:14.292Z,4.50
2022-10-22T14:18:18.439Z,4.50
2022-10-22T14:19:22.647Z,4.50
2022-10-22T14:20:26.638Z,5.00
2022-10-22T14:21:30.771Z,5.00
2022-10-22T14:22:34.835Z,5.25
2022-10-22T14:23:39.087Z,5.50
2022-10-22T14:24:43.459Z,4.50
2022-10-22T14:25:47.470Z,4.50
2022-10-22T14:26:51.876Z,5.00